Mathilde Maersk — OUJS2 — position and weather

sailwx.info

Track history (hours):
 
Tides and Currents Weather Stations Pressure Air Temp Water Temp Dewpoint Dewpoint Depression Visibility Wind Speed Wind Dir Waves Ship Positions

Mathilde Maersk

Last reported at 2017-Oct-17 13:26 UTC. Time now 2017-Oct-22 10:12 UTC.
Position N 40°27' W 073°49'.

Length 367 m; draft 12.2 m.

Type: Ship (hazmat cat B). MMSI: 220597990.

Date/timePositionNaut miles runAvg speedWind from/ knotsBaromVisibWave heightAir tempDewpointWater temp
2017-Oct-17 13:26N 40°27' W 073°49'511.4
2017-Oct-17 12:59N 40°29' W 073°55'612.4
2017-Oct-17 12:30N 40°33' W 074°02'611.4
2017-Oct-17 12:00N 40°39' W 074°03'3 5.7
2017-Oct-17 11:30N 40°39' W 074°07'2 3.1
2017-Oct-17 11:00N 40°40' W 074°08'1 2.0
2017-Oct-17 10:30N 40°41' W 074°09'0 0.2
2017-Oct-17 09:59N 40°41' W 074°09'0 0.0
2017-Oct-17 09:29N 40°41' W 074°09'0 0.0
2017-Oct-17 08:59N 40°41' W 074°09'0 0.0
2017-Oct-17 08:29N 40°41' W 074°09'0 0.0
2017-Oct-17 07:59N 40°41' W 074°09'0 0.0
2017-Oct-17 07:29N 40°41' W 074°09'0 0.0
2017-Oct-17 06:59N 40°41' W 074°09'0 0.0
2017-Oct-17 06:29N 40°41' W 074°09'0 0.0
2017-Oct-17 05:59N 40°41' W 074°09'0 0.0
2017-Oct-17 05:29N 40°41' W 074°09'0 0.0
2017-Oct-17 04:59N 40°41' W 074°09'0 0.0
2017-Oct-17 04:29N 40°41' W 074°09'0 0.0
2017-Oct-17 03:59N 40°41' W 074°09'0 0.0
2017-Oct-17 03:29N 40°41' W 074°09'0 0.0
2017-Oct-17 02:59N 40°41' W 074°09'0 0.0
2017-Oct-17 02:29N 40°41' W 074°09'0 0.0
2017-Oct-17 01:59N 40°41' W 074°09'0 0.0
2017-Oct-17 01:29N 40°41' W 074°09'0 0.0
2017-Oct-17 00:59N 40°41' W 074°09'0 0.0
2017-Oct-17 00:29N 40°41' W 074°09'0 0.0
2017-Oct-16 23:59N 40°41' W 074°09'0 0.0
2017-Oct-16 23:29N 40°41' W 074°09'0 0.0
2017-Oct-16 22:59N 40°41' W 074°09'0 0.0
2017-Oct-16 22:29N 40°41' W 074°09'0 0.0
2017-Oct-16 21:56N 40°41' W 074°09'0 0.0
2017-Oct-16 21:29N 40°41' W 074°09'0 0.0
2017-Oct-16 20:59N 40°41' W 074°09'0 0.0
2017-Oct-16 20:29N 40°41' W 074°09'0 0.0
2017-Oct-16 19:59N 40°41' W 074°09'0 0.0
2017-Oct-16 19:29N 40°41' W 074°09'0 0.0
2017-Oct-16 18:59N 40°41' W 074°09'0 0.0
2017-Oct-16 18:26N 40°41' W 074°09'0 0.0
2017-Oct-16 17:59N 40°41' W 074°09'0 0.0
2017-Oct-16 17:29N 40°41' W 074°09'0 0.0
2017-Oct-16 16:59N 40°41' W 074°09'0 0.0
2017-Oct-16 16:29N 40°41' W 074°09'0 0.0
2017-Oct-16 15:59N 40°41' W 074°09'0 0.0
2017-Oct-16 15:29N 40°41' W 074°09'0 0.0
2017-Oct-16 14:59N 40°41' W 074°09'0 0.0
2017-Oct-16 13:59N 40°41' W 074°09'0 0.0
2017-Oct-16 13:29N 40°41' W 074°09'0 0.0
2017-Oct-16 12:59N 40°41' W 074°09'0 0.0
2017-Oct-16 12:29N 40°41' W 074°09'0 0.0
2017-Oct-16 11:59N 40°41' W 074°09'1 1.6
2017-Oct-16 11:30N 40°40' W 074°08'2 3.3
2017-Oct-16 11:01N 40°39' W 074°08'3 5.2
2017-Oct-16 10:31N 40°39' W 074°05'3 6.7
2017-Oct-16 10:00N 40°36' W 074°03'611.3
2017-Oct-16 09:30N 40°31' W 073°59'815.5
2017-Oct-16 09:01N 40°28' W 073°50'4 7.0
2017-Oct-16 08:29N 40°25' W 073°47'510.0
2017-Oct-16 08:00N 40°20' W 073°47'612.6
2017-Oct-16 07:30N 40°14' W 073°45'3918.2
2017-Oct-16 05:21N 39°34' W 073°44'3219.0
2017-Oct-16 03:40N 39°03' W 073°52'419.0
2017-Oct-16 03:28N 38°60' W 073°53'1718.9
2017-Oct-16 02:35N 38°43' W 073°57'318.8
2017-Oct-16 02:27N 38°41' W 073°58'  
2017-Oct-13 10:05N 26°17' W 079°14'815.6
2017-Oct-13 09:34N 26°14' W 079°22'116.2
2017-Oct-13 09:30N 26°13' W 079°23'815.8
2017-Oct-13 09:00N 26°10' W 079°31'815.8
2017-Oct-13 08:30N 26°07' W 079°39'815.1
2017-Oct-13 08:01N 26°03' W 079°46'815.6
2017-Oct-13 07:31N 25°58' W 079°52'815.7
2017-Oct-13 07:00N 25°51' W 079°58'715.0
2017-Oct-13 06:30N 25°45' W 080°03'3 5.5
2017-Oct-13 06:01N 25°46' W 080°06'3 6.3
2017-Oct-13 05:31N 25°46' W 080°09'0 0.1
2017-Oct-13 04:58N 25°46' W 080°09'0 0.0
2017-Oct-13 04:28N 25°46' W 080°09'0 0.0
2017-Oct-13 03:58N 25°46' W 080°09'0 0.0
2017-Oct-13 03:28N 25°46' W 080°09'0 0.0
2017-Oct-13 02:58N 25°46' W 080°09'0 0.0
2017-Oct-13 02:28N 25°46' W 080°09'0 0.0
2017-Oct-13 01:58N 25°46' W 080°09'0 0.0
2017-Oct-13 01:22N 25°46' W 080°09'0 0.0
2017-Oct-13 00:58N 25°46' W 080°09'0 0.0
2017-Oct-13 00:28N 25°46' W 080°09'0 0.0
2017-Oct-12 23:58N 25°46' W 080°09'0 0.0
2017-Oct-12 23:25N 25°46' W 080°09'0 0.0
2017-Oct-12 22:55N 25°46' W 080°09'0 0.0
2017-Oct-12 22:22N 25°46' W 080°09'0 0.0
2017-Oct-12 21:58N 25°46' W 080°09'0 0.0
2017-Oct-12 21:28N 25°46' W 080°09'0 0.0
2017-Oct-12 20:58N 25°46' W 080°09'0 0.0
2017-Oct-12 20:28N 25°46' W 080°09'0 0.0
2017-Oct-12 19:55N 25°46' W 080°09'0 0.0
2017-Oct-12 19:25N 25°46' W 080°09'0 0.0
2017-Oct-12 18:58N 25°46' W 080°09'0 0.0
2017-Oct-12 18:25N 25°46' W 080°09'0 0.0
2017-Oct-12 17:58N 25°46' W 080°09'0 0.0
2017-Oct-12 17:28N 25°46' W 080°09'0 0.0
2017-Oct-12 16:58N 25°46' W 080°09'0 0.0
2017-Oct-12 16:28N 25°46' W 080°09'0 0.0
2017-Oct-12 15:58N 25°46' W 080°09'0 0.0
2017-Oct-12 15:28N 25°46' W 080°09'0 0.0
2017-Oct-12 14:58N 25°46' W 080°09'0 0.0
2017-Oct-12 14:28N 25°46' W 080°09'0 0.0
2017-Oct-12 13:58N 25°46' W 080°09'0 0.0
2017-Oct-12 13:28N 25°46' W 080°09'0 0.0
2017-Oct-12 13:00N 25°46' W 080°09'1 1.7
2017-Oct-12 12:30N 25°46' W 080°10'1 1.6
2017-Oct-12 12:00N 25°46' W 080°09'3 5.5
2017-Oct-12 11:30N 25°46' W 080°06'4 7.5
2017-Oct-12 11:00N 25°48' W 080°03'2 4.8
2017-Oct-12 10:30N 25°48' W 080°00'3 6.6
2017-Oct-12 10:00N 25°52' W 080°01'5 9.3
2017-Oct-12 09:30N 25°56' W 080°01'5 9.3
2017-Oct-12 09:00N 26°01' W 080°00'5 9.4
2017-Oct-12 08:30N 26°06' W 079°60'5 9.2
2017-Oct-12 08:00N 26°10' W 079°60'5 9.1
2017-Oct-12 07:30N 26°15' W 079°59'5 9.1
2017-Oct-12 07:00N 26°19' W 079°58'5 9.5
2017-Oct-12 06:30N 26°24' W 079°58'5 9.4
2017-Oct-12 06:00N 26°29' W 079°57'5 9.3
2017-Oct-12 05:30N 26°34' W 079°57'5 9.3
2017-Oct-12 05:00N 26°38' W 079°56'5 9.1
2017-Oct-12 04:30N 26°43' W 079°56'4 9.1
2017-Oct-12 04:00N 26°47' W 079°55'5 9.1
2017-Oct-12 03:30N 26°52' W 079°54'5 9.2
2017-Oct-12 03:00N 26°56' W 079°54'4 9.0
2017-Oct-12 02:30N 27°01' W 079°53'5 9.1
2017-Oct-12 02:00N 27°05' W 079°53'5 9.0
2017-Oct-12 01:30N 27°10' W 079°52'256 9.9
2017-Oct-10 23:43N 31°25' W 080°16'311.8
2017-Oct-10 23:26N 31°28' W 080°16'511.9
2017-Oct-10 22:58N 31°34' W 080°16'612.1
2017-Oct-10 22:30N 31°40' W 080°17'1112.3
2017-Oct-10 21:37N 31°50' W 080°18'112.4
2017-Oct-10 21:30N 31°52' W 080°19'612.2
2017-Oct-10 21:00N 31°56' W 080°24'912.7
2017-Oct-10 20:18N 31°56' W 080°35'311.2
2017-Oct-10 20:00N 31°56' W 080°39'5 9.0
2017-Oct-10 19:30N 31°58' W 080°44'713.0
2017-Oct-10 19:00N 32°02' W 080°50'611.1
2017-Oct-10 18:30N 32°03' W 080°56'5 9.9
2017-Oct-10 18:00N 32°06' W 081°01'3 6.8
2017-Oct-10 17:30N 32°05' W 081°04'2 4.2
2017-Oct-10 17:00N 32°06' W 081°07'2 4.2
2017-Oct-10 16:30N 32°07' W 081°08'1 1.9
2017-Oct-10 16:00N 32°08' W 081°09'0 0.0
2017-Oct-10 15:30N 32°08' W 081°09'0 0.0
2017-Oct-10 15:00N 32°08' W 081°09'0 0.0
2017-Oct-10 14:00N 32°08' W 081°09'0 0.0
2017-Oct-10 13:30N 32°08' W 081°09'0 0.0
2017-Oct-10 13:00N 32°08' W 081°09'0 0.0
2017-Oct-10 12:30N 32°08' W 081°09'0 0.0
2017-Oct-10 11:54N 32°08' W 081°09'0 0.0
2017-Oct-10 11:30N 32°08' W 081°09'0 0.0
2017-Oct-10 10:54N 32°08' W 081°09'0 0.0
2017-Oct-10 10:30N 32°08' W 081°09'0 0.0
2017-Oct-10 09:48N 32°08' W 081°09'0 0.0
2017-Oct-10 09:30N 32°08' W 081°09'0 0.0
2017-Oct-10 09:00N 32°08' W 081°09'0 0.0
2017-Oct-10 08:30N 32°08' W 081°09'0 0.0
2017-Oct-10 08:00N 32°08' W 081°09'0 0.0
2017-Oct-10 07:30N 32°08' W 081°09'0 0.0
2017-Oct-10 07:00N 32°08' W 081°09'0 0.0
2017-Oct-10 06:30N 32°08' W 081°09'0 0.0
2017-Oct-10 06:00N 32°08' W 081°09'0 0.0
2017-Oct-10 05:30N 32°08' W 081°09'0 0.0
2017-Oct-10 05:00N 32°08' W 081°09'0 0.0
2017-Oct-10 04:30N 32°08' W 081°09'0 0.0
2017-Oct-10 04:00N 32°08' W 081°09'0 0.0
2017-Oct-10 03:30N 32°08' W 081°09'0 0.0
2017-Oct-10 03:00N 32°08' W 081°09'0 0.0
2017-Oct-10 02:30N 32°08' W 081°09'0 0.0
2017-Oct-10 02:00N 32°08' W 081°09'0 0.0
2017-Oct-10 01:30N 32°08' W 081°09'0 0.0
2017-Oct-10 01:00N 32°08' W 081°09'0 0.0
2017-Oct-10 00:30N 32°08' W 081°09'0 0.0
2017-Oct-10 00:00N 32°08' W 081°09'0 0.0
2017-Oct-09 23:30N 32°08' W 081°09'0 0.0
2017-Oct-09 22:54N 32°08' W 081°09'0 0.0
2017-Oct-09 22:30N 32°08' W 081°09'0 0.0
2017-Oct-09 22:00N 32°08' W 081°09'0 0.0
2017-Oct-09 21:30N 32°08' W 081°09'0 0.0
2017-Oct-09 21:00N 32°08' W 081°09'0 0.0
2017-Oct-09 20:30N 32°08' W 081°09'0 0.0
2017-Oct-09 20:00N 32°08' W 081°09'0 0.0
2017-Oct-09 19:30N 32°08' W 081°09'0 0.0
2017-Oct-09 19:00N 32°08' W 081°09'0 0.0
2017-Oct-09 18:30N 32°08' W 081°09'0 0.0
2017-Oct-09 18:00N 32°08' W 081°09'0 0.0
2017-Oct-09 17:30N 32°08' W 081°09'0 0.0
2017-Oct-09 17:00N 32°08' W 081°09'0 0.9
2017-Oct-09 16:30N 32°08' W 081°08'3 5.0
2017-Oct-09 16:00N 32°06' W 081°07'3 5.6
2017-Oct-09 15:30N 32°05' W 081°04'4 7.5
2017-Oct-09 15:01N 32°05' W 080°59'611.1
2017-Oct-09 14:30N 32°02' W 080°54'713.6
2017-Oct-09 14:00N 31°59' W 080°46'611.7
2017-Oct-09 13:31N 31°57' W 080°40'3 6.3
2017-Oct-09 13:00N 31°56' W 080°36'3 6.8
2017-Oct-09 12:30N 31°57' W 080°32'4 7.0
2017-Oct-09 12:00N 31°58' W 080°28'4 7.8
2017-Oct-09 11:30N 31°59' W 080°24'4 7.4
2017-Oct-09 10:57N 31°59' W 080°19'18 2.0
2017-Oct-09 02:00N 31°46' W 080°05'3 4.2
2017-Oct-09 01:18N 31°48' W 080°06'1 0.5
2017-Oct-09 00:20N 31°49' W 080°06'0 1.3
2017-Oct-09 00:00N 31°49' W 080°06'2 4.5
2017-Oct-08 23:27N 31°52' W 080°06'2 3.2
2017-Oct-08 22:58N 31°53' W 080°07'1 1.4
2017-Oct-08 22:30N 31°53' W 080°06'1 1.2
2017-Oct-08 21:57N 31°53' W 080°05'1 2.0
2017-Oct-08 21:24N 31°53' W 080°04'2 5.7
2017-Oct-08 20:59N 31°54' W 080°02'3 6.0
2017-Oct-08 20:27N 31°56' W 079°59'3 5.9
2017-Oct-08 20:00N 31°58' W 079°56'3 5.8
2017-Oct-08 19:30N 31°60' W 079°54'3 5.7
2017-Oct-08 19:00N 32°02' W 079°51'3 5.6
2017-Oct-08 18:29N 32°04' W 079°49'  
Track history (hours):
 
Tides and Currents Weather Stations Pressure Air Temp Water Temp Dewpoint Dewpoint Depression Visibility Wind Speed Wind Dir Waves Ship Positions

Mathilde Maersk

Last reported at 2017-Oct-17 13:26 UTC. Time now 2017-Oct-22 10:12 UTC.
Position N 40°27' W 073°49'.

Length 367 m; draft 12.2 m.

Type: Ship (hazmat cat B). MMSI: 220597990.

Date/timePositionNaut miles runAvg speedWind from/ knotsBaromVisibWave heightAir tempDewpointWater temp
2017-Oct-17 13:26N 40°27' W 073°49'511.4
2017-Oct-17 12:59N 40°29' W 073°55'612.4
2017-Oct-17 12:30N 40°33' W 074°02'611.4
2017-Oct-17 12:00N 40°39' W 074°03'3 5.7
2017-Oct-17 11:30N 40°39' W 074°07'2 3.1
2017-Oct-17 11:00N 40°40' W 074°08'1 2.0
2017-Oct-17 10:30N 40°41' W 074°09'0 0.2
2017-Oct-17 09:59N 40°41' W 074°09'0 0.0
2017-Oct-17 09:29N 40°41' W 074°09'0 0.0
2017-Oct-17 08:59N 40°41' W 074°09'0 0.0
2017-Oct-17 08:29N 40°41' W 074°09'0 0.0
2017-Oct-17 07:59N 40°41' W 074°09'0 0.0
2017-Oct-17 07:29N 40°41' W 074°09'0 0.0
2017-Oct-17 06:59N 40°41' W 074°09'0 0.0
2017-Oct-17 06:29N 40°41' W 074°09'0 0.0
2017-Oct-17 05:59N 40°41' W 074°09'0 0.0
2017-Oct-17 05:29N 40°41' W 074°09'0 0.0
2017-Oct-17 04:59N 40°41' W 074°09'0 0.0
2017-Oct-17 04:29N 40°41' W 074°09'0 0.0
2017-Oct-17 03:59N 40°41' W 074°09'0 0.0
2017-Oct-17 03:29N 40°41' W 074°09'0 0.0
2017-Oct-17 02:59N 40°41' W 074°09'0 0.0
2017-Oct-17 02:29N 40°41' W 074°09'0 0.0
2017-Oct-17 01:59N 40°41' W 074°09'0 0.0
2017-Oct-17 01:29N 40°41' W 074°09'0 0.0
2017-Oct-17 00:59N 40°41' W 074°09'0 0.0
2017-Oct-17 00:29N 40°41' W 074°09'0 0.0
2017-Oct-16 23:59N 40°41' W 074°09'0 0.0
2017-Oct-16 23:29N 40°41' W 074°09'0 0.0
2017-Oct-16 22:59N 40°41' W 074°09'0 0.0
2017-Oct-16 22:29N 40°41' W 074°09'0 0.0
2017-Oct-16 21:56N 40°41' W 074°09'0 0.0
2017-Oct-16 21:29N 40°41' W 074°09'0 0.0
2017-Oct-16 20:59N 40°41' W 074°09'0 0.0
2017-Oct-16 20:29N 40°41' W 074°09'0 0.0
2017-Oct-16 19:59N 40°41' W 074°09'0 0.0
2017-Oct-16 19:29N 40°41' W 074°09'0 0.0
2017-Oct-16 18:59N 40°41' W 074°09'0 0.0
2017-Oct-16 18:26N 40°41' W 074°09'0 0.0
2017-Oct-16 17:59N 40°41' W 074°09'0 0.0
2017-Oct-16 17:29N 40°41' W 074°09'0 0.0
2017-Oct-16 16:59N 40°41' W 074°09'0 0.0
2017-Oct-16 16:29N 40°41' W 074°09'0 0.0
2017-Oct-16 15:59N 40°41' W 074°09'0 0.0
2017-Oct-16 15:29N 40°41' W 074°09'0 0.0
2017-Oct-16 14:59N 40°41' W 074°09'0 0.0
2017-Oct-16 13:59N 40°41' W 074°09'0 0.0
2017-Oct-16 13:29N 40°41' W 074°09'0 0.0
2017-Oct-16 12:59N 40°41' W 074°09'0 0.0
2017-Oct-16 12:29N 40°41' W 074°09'0 0.0
2017-Oct-16 11:59N 40°41' W 074°09'1 1.6
2017-Oct-16 11:30N 40°40' W 074°08'2 3.3
2017-Oct-16 11:01N 40°39' W 074°08'3 5.2
2017-Oct-16 10:31N 40°39' W 074°05'3 6.7
2017-Oct-16 10:00N 40°36' W 074°03'611.3
2017-Oct-16 09:30N 40°31' W 073°59'815.5
2017-Oct-16 09:01N 40°28' W 073°50'4 7.0
2017-Oct-16 08:29N 40°25' W 073°47'510.0
2017-Oct-16 08:00N 40°20' W 073°47'612.6
2017-Oct-16 07:30N 40°14' W 073°45'3918.2
2017-Oct-16 05:21N 39°34' W 073°44'3219.0
2017-Oct-16 03:40N 39°03' W 073°52'419.0
2017-Oct-16 03:28N 38°60' W 073°53'1718.9
2017-Oct-16 02:35N 38°43' W 073°57'318.8
2017-Oct-16 02:27N 38°41' W 073°58'  
2017-Oct-13 10:05N 26°17' W 079°14'815.6
2017-Oct-13 09:34N 26°14' W 079°22'116.2
2017-Oct-13 09:30N 26°13' W 079°23'815.8
2017-Oct-13 09:00N 26°10' W 079°31'815.8
2017-Oct-13 08:30N 26°07' W 079°39'815.1
2017-Oct-13 08:01N 26°03' W 079°46'815.6
2017-Oct-13 07:31N 25°58' W 079°52'815.7
2017-Oct-13 07:00N 25°51' W 079°58'715.0
2017-Oct-13 06:30N 25°45' W 080°03'3 5.5
2017-Oct-13 06:01N 25°46' W 080°06'3 6.3
2017-Oct-13 05:31N 25°46' W 080°09'0 0.1
2017-Oct-13 04:58N 25°46' W 080°09'0 0.0
2017-Oct-13 04:28N 25°46' W 080°09'0 0.0
2017-Oct-13 03:58N 25°46' W 080°09'0 0.0
2017-Oct-13 03:28N 25°46' W 080°09'0 0.0
2017-Oct-13 02:58N 25°46' W 080°09'0 0.0
2017-Oct-13 02:28N 25°46' W 080°09'0 0.0
2017-Oct-13 01:58N 25°46' W 080°09'0 0.0
2017-Oct-13 01:22N 25°46' W 080°09'0 0.0
2017-Oct-13 00:58N 25°46' W 080°09'0 0.0
2017-Oct-13 00:28N 25°46' W 080°09'0 0.0
2017-Oct-12 23:58N 25°46' W 080°09'0 0.0
2017-Oct-12 23:25N 25°46' W 080°09'0 0.0
2017-Oct-12 22:55N 25°46' W 080°09'0 0.0
2017-Oct-12 22:22N 25°46' W 080°09'0 0.0
2017-Oct-12 21:58N 25°46' W 080°09'0 0.0
2017-Oct-12 21:28N 25°46' W 080°09'0 0.0
2017-Oct-12 20:58N 25°46' W 080°09'0 0.0
2017-Oct-12 20:28N 25°46' W 080°09'0 0.0
2017-Oct-12 19:55N 25°46' W 080°09'0 0.0
2017-Oct-12 19:25N 25°46' W 080°09'0 0.0
2017-Oct-12 18:58N 25°46' W 080°09'0 0.0
2017-Oct-12 18:25N 25°46' W 080°09'0 0.0
2017-Oct-12 17:58N 25°46' W 080°09'0 0.0
2017-Oct-12 17:28N 25°46' W 080°09'0 0.0
2017-Oct-12 16:58N 25°46' W 080°09'0 0.0
2017-Oct-12 16:28N 25°46' W 080°09'0 0.0
2017-Oct-12 15:58N 25°46' W 080°09'0 0.0
2017-Oct-12 15:28N 25°46' W 080°09'0 0.0
2017-Oct-12 14:58N 25°46' W 080°09'0 0.0
2017-Oct-12 14:28N 25°46' W 080°09'0 0.0
2017-Oct-12 13:58N 25°46' W 080°09'0 0.0
2017-Oct-12 13:28N 25°46' W 080°09'0 0.0
2017-Oct-12 13:00N 25°46' W 080°09'1 1.7
2017-Oct-12 12:30N 25°46' W 080°10'1 1.6
2017-Oct-12 12:00N 25°46' W 080°09'3 5.5
2017-Oct-12 11:30N 25°46' W 080°06'4 7.5
2017-Oct-12 11:00N 25°48' W 080°03'2 4.8
2017-Oct-12 10:30N 25°48' W 080°00'3 6.6
2017-Oct-12 10:00N 25°52' W 080°01'5 9.3
2017-Oct-12 09:30N 25°56' W 080°01'5 9.3
2017-Oct-12 09:00N 26°01' W 080°00'5 9.4
2017-Oct-12 08:30N 26°06' W 079°60'5 9.2
2017-Oct-12 08:00N 26°10' W 079°60'5 9.1
2017-Oct-12 07:30N 26°15' W 079°59'5 9.1
2017-Oct-12 07:00N 26°19' W 079°58'5 9.5
2017-Oct-12 06:30N 26°24' W 079°58'5 9.4
2017-Oct-12 06:00N 26°29' W 079°57'5 9.3
2017-Oct-12 05:30N 26°34' W 079°57'5 9.3
2017-Oct-12 05:00N 26°38' W 079°56'5 9.1
2017-Oct-12 04:30N 26°43' W 079°56'4 9.1
2017-Oct-12 04:00N 26°47' W 079°55'5 9.1
2017-Oct-12 03:30N 26°52' W 079°54'5 9.2
2017-Oct-12 03:00N 26°56' W 079°54'4 9.0
2017-Oct-12 02:30N 27°01' W 079°53'5 9.1
2017-Oct-12 02:00N 27°05' W 079°53'5 9.0
2017-Oct-12 01:30N 27°10' W 079°52'256 9.9
2017-Oct-10 23:43N 31°25' W 080°16'311.8
2017-Oct-10 23:26N 31°28' W 080°16'511.9
2017-Oct-10 22:58N 31°34' W 080°16'612.1
2017-Oct-10 22:30N 31°40' W 080°17'1112.3
2017-Oct-10 21:37N 31°50' W 080°18'112.4
2017-Oct-10 21:30N 31°52' W 080°19'612.2
2017-Oct-10 21:00N 31°56' W 080°24'912.7
2017-Oct-10 20:18N 31°56' W 080°35'311.2
2017-Oct-10 20:00N 31°56' W 080°39'5 9.0
2017-Oct-10 19:30N 31°58' W 080°44'713.0
2017-Oct-10 19:00N 32°02' W 080°50'611.1
2017-Oct-10 18:30N 32°03' W 080°56'5 9.9
2017-Oct-10 18:00N 32°06' W 081°01'3 6.8
2017-Oct-10 17:30N 32°05' W 081°04'2 4.2
2017-Oct-10 17:00N 32°06' W 081°07'2 4.2
2017-Oct-10 16:30N 32°07' W 081°08'1 1.9
2017-Oct-10 16:00N 32°08' W 081°09'0 0.0
2017-Oct-10 15:30N 32°08' W 081°09'0 0.0
2017-Oct-10 15:00N 32°08' W 081°09'0 0.0
2017-Oct-10 14:00N 32°08' W 081°09'0 0.0
2017-Oct-10 13:30N 32°08' W 081°09'0 0.0
2017-Oct-10 13:00N 32°08' W 081°09'0 0.0
2017-Oct-10 12:30N 32°08' W 081°09'0 0.0
2017-Oct-10 11:54N 32°08' W 081°09'0 0.0
2017-Oct-10 11:30N 32°08' W 081°09'0 0.0
2017-Oct-10 10:54N 32°08' W 081°09'0 0.0
2017-Oct-10 10:30N 32°08' W 081°09'0 0.0
2017-Oct-10 09:48N 32°08' W 081°09'0 0.0
2017-Oct-10 09:30N 32°08' W 081°09'0 0.0
2017-Oct-10 09:00N 32°08' W 081°09'0 0.0
2017-Oct-10 08:30N 32°08' W 081°09'0 0.0
2017-Oct-10 08:00N 32°08' W 081°09'0 0.0
2017-Oct-10 07:30N 32°08' W 081°09'0 0.0
2017-Oct-10 07:00N 32°08' W 081°09'0 0.0
2017-Oct-10 06:30N 32°08' W 081°09'0 0.0
2017-Oct-10 06:00N 32°08' W 081°09'0 0.0
2017-Oct-10 05:30N 32°08' W 081°09'0 0.0
2017-Oct-10 05:00N 32°08' W 081°09'0 0.0
2017-Oct-10 04:30N 32°08' W 081°09'0 0.0
2017-Oct-10 04:00N 32°08' W 081°09'0 0.0
2017-Oct-10 03:30N 32°08' W 081°09'0 0.0
2017-Oct-10 03:00N 32°08' W 081°09'0 0.0
2017-Oct-10 02:30N 32°08' W 081°09'0 0.0
2017-Oct-10 02:00N 32°08' W 081°09'0 0.0
2017-Oct-10 01:30N 32°08' W 081°09'0 0.0
2017-Oct-10 01:00N 32°08' W 081°09'0 0.0
2017-Oct-10 00:30N 32°08' W 081°09'0 0.0
2017-Oct-10 00:00N 32°08' W 081°09'0 0.0
2017-Oct-09 23:30N 32°08' W 081°09'0 0.0
2017-Oct-09 22:54N 32°08' W 081°09'0 0.0
2017-Oct-09 22:30N 32°08' W 081°09'0 0.0
2017-Oct-09 22:00N 32°08' W 081°09'0 0.0
2017-Oct-09 21:30N 32°08' W 081°09'0 0.0
2017-Oct-09 21:00N 32°08' W 081°09'0 0.0
2017-Oct-09 20:30N 32°08' W 081°09'0 0.0
2017-Oct-09 20:00N 32°08' W 081°09'0 0.0
2017-Oct-09 19:30N 32°08' W 081°09'0 0.0
2017-Oct-09 19:00N 32°08' W 081°09'0 0.0
2017-Oct-09 18:30N 32°08' W 081°09'0 0.0
2017-Oct-09 18:00N 32°08' W 081°09'0 0.0
2017-Oct-09 17:30N 32°08' W 081°09'0 0.0
2017-Oct-09 17:00N 32°08' W 081°09'0 0.9
2017-Oct-09 16:30N 32°08' W 081°08'3 5.0
2017-Oct-09 16:00N 32°06' W 081°07'3 5.6
2017-Oct-09 15:30N 32°05' W 081°04'4 7.5
2017-Oct-09 15:01N 32°05' W 080°59'611.1
2017-Oct-09 14:30N 32°02' W 080°54'713.6
2017-Oct-09 14:00N 31°59' W 080°46'611.7
2017-Oct-09 13:31N 31°57' W 080°40'3 6.3
2017-Oct-09 13:00N 31°56' W 080°36'3 6.8
2017-Oct-09 12:30N 31°57' W 080°32'4 7.0
2017-Oct-09 12:00N 31°58' W 080°28'4 7.8
2017-Oct-09 11:30N 31°59' W 080°24'4 7.4
2017-Oct-09 10:57N 31°59' W 080°19'18 2.0
2017-Oct-09 02:00N 31°46' W 080°05'3 4.2
2017-Oct-09 01:18N 31°48' W 080°06'1 0.5
2017-Oct-09 00:20N 31°49' W 080°06'0 1.3
2017-Oct-09 00:00N 31°49' W 080°06'2 4.5
2017-Oct-08 23:27N 31°52' W 080°06'2 3.2
2017-Oct-08 22:58N 31°53' W 080°07'1 1.4
2017-Oct-08 22:30N 31°53' W 080°06'1 1.2
2017-Oct-08 21:57N 31°53' W 080°05'1 2.0
2017-Oct-08 21:24N 31°53' W 080°04'2 5.7
2017-Oct-08 20:59N 31°54' W 080°02'3 6.0
2017-Oct-08 20:27N 31°56' W 079°59'3 5.9
2017-Oct-08 20:00N 31°58' W 079°56'3 5.8
2017-Oct-08 19:30N 31°60' W 079°54'3 5.7
2017-Oct-08 19:00N 32°02' W 079°51'3 5.6
2017-Oct-08 18:29N 32°04' W 079°49'  

Dump ship's entire track history